sensor_id;sensor_type;location;lat;lon;timestamp;P1;durP1;ratioP1;P2;durP2;ratioP2
61635;SDS011;59438;45.014;39.006;2022-08-04T00:00:16;2.33;;;2.13;;
61635;SDS011;59438;45.014;39.006;2022-08-04T00:02:50;2.30;;;2.05;;
61635;SDS011;59438;45.014;39.006;2022-08-04T00:05:28;3.33;;;2.42;;
61635;SDS011;59438;45.014;39.006;2022-08-04T00:08:04;4.38;;;2.50;;
61635;SDS011;59438;45.014;39.006;2022-08-04T00:10:36;2.92;;;2.63;;
61635;SDS011;59438;45.014;39.006;2022-08-04T00:13:04;3.63;;;2.40;;
61635;SDS011;59438;45.014;39.006;2022-08-04T00:15:33;3.55;;;2.10;;
61635;SDS011;59438;45.014;39.006;2022-08-04T00:18:00;2.55;;;2.35;;
61635;SDS011;59438;45.014;39.006;2022-08-04T00:20:30;3.20;;;2.40;;
61635;SDS011;59438;45.014;39.006;2022-08-04T00:22:58;2.50;;;2.17;;
61635;SDS011;59438;45.014;39.006;2022-08-04T00:25:27;3.22;;;2.63;;
61635;SDS011;59438;45.014;39.006;2022-08-04T00:27:54;3.50;;;2.60;;
61635;SDS011;59438;45.014;39.006;2022-08-04T00:30:20;2.78;;;2.17;;
61635;SDS011;59438;45.014;39.006;2022-08-04T00:32:47;2.60;;;1.80;;
61635;SDS011;59438;45.014;39.006;2022-08-04T00:35:15;2.80;;;2.20;;
61635;SDS011;59438;45.014;39.006;2022-08-04T00:37:42;2.60;;;2.20;;
61635;SDS011;59438;45.014;39.006;2022-08-04T00:40:12;3.15;;;2.42;;
61635;SDS011;59438;45.014;39.006;2022-08-04T00:42:50;3.05;;;2.25;;
61635;SDS011;59438;45.014;39.006;2022-08-04T00:45:31;2.50;;;1.95;;
61635;SDS011;59438;45.014;39.006;2022-08-04T00:48:16;2.63;;;2.13;;
61635;SDS011;59438;45.014;39.006;2022-08-04T00:50:56;2.30;;;2.10;;
61635;SDS011;59438;45.014;39.006;2022-08-04T00:53:35;2.60;;;2.25;;
61635;SDS011;59438;45.014;39.006;2022-08-04T00:56:14;2.67;;;2.10;;
61635;SDS011;59438;45.014;39.006;2022-08-04T00:59:01;2.58;;;2.38;;
61635;SDS011;59438;45.014;39.006;2022-08-04T01:01:43;2.38;;;1.90;;
61635;SDS011;59438;45.014;39.006;2022-08-04T01:04:23;2.20;;;1.98;;
61635;SDS011;59438;45.014;39.006;2022-08-04T01:07:13;2.60;;;2.22;;
61635;SDS011;59438;45.014;39.006;2022-08-04T01:09:53;2.67;;;2.13;;
61635;SDS011;59438;45.014;39.006;2022-08-04T01:12:39;2.58;;;2.25;;
61635;SDS011;59438;45.014;39.006;2022-08-04T01:15:16;2.35;;;2.10;;
61635;SDS011;59438;45.014;39.006;2022-08-04T01:17:53;3.05;;;2.70;;
61635;SDS011;59438;45.014;39.006;2022-08-04T01:20:31;2.67;;;2.28;;
61635;SDS011;59438;45.014;39.006;2022-08-04T01:23:14;2.80;;;2.13;;
61635;SDS011;59438;45.014;39.006;2022-08-04T01:26:12;3.05;;;2.47;;
61635;SDS011;59438;45.014;39.006;2022-08-04T01:29:05;2.85;;;2.33;;
61635;SDS011;59438;45.014;39.006;2022-08-04T01:31:33;3.60;;;2.50;;
61635;SDS011;59438;45.014;39.006;2022-08-04T01:34:13;2.22;;;2.00;;
61635;SDS011;59438;45.014;39.006;2022-08-04T01:36:44;3.13;;;2.80;;
61635;SDS011;59438;45.014;39.006;2022-08-04T01:39:11;2.38;;;2.17;;
61635;SDS011;59438;45.014;39.006;2022-08-04T01:41:39;2.42;;;2.20;;
61635;SDS011;59438;45.014;39.006;2022-08-04T01:44:07;2.67;;;2.42;;
61635;SDS011;59438;45.014;39.006;2022-08-04T01:46:36;3.55;;;2.90;;
61635;SDS011;59438;45.014;39.006;2022-08-04T01:49:05;3.95;;;2.85;;
61635;SDS011;59438;45.014;39.006;2022-08-04T01:51:34;4.90;;;3.60;;
61635;SDS011;59438;45.014;39.006;2022-08-04T01:54:05;4.38;;;3.58;;
61635;SDS011;59438;45.014;39.006;2022-08-04T01:56:33;3.60;;;3.17;;
61635;SDS011;59438;45.014;39.006;2022-08-04T01:59:01;4.22;;;3.17;;
61635;SDS011;59438;45.014;39.006;2022-08-04T02:01:31;3.72;;;2.55;;
61635;SDS011;59438;45.014;39.006;2022-08-04T02:04:01;3.13;;;2.67;;
61635;SDS011;59438;45.014;39.006;2022-08-04T02:06:30;3.08;;;2.53;;
61635;SDS011;59438;45.014;39.006;2022-08-04T02:08:59;3.17;;;2.60;;
61635;SDS011;59438;45.014;39.006;2022-08-04T02:11:32;4.00;;;2.97;;
61635;SDS011;59438;45.014;39.006;2022-08-04T02:14:01;3.13;;;2.47;;
61635;SDS011;59438;45.014;39.006;2022-08-04T02:16:38;3.08;;;2.60;;
61635;SDS011;59438;45.014;39.006;2022-08-04T02:19:13;2.80;;;2.40;;
61635;SDS011;59438;45.014;39.006;2022-08-04T02:21:50;2.42;;;2.17;;
61635;SDS011;59438;45.014;39.006;2022-08-04T02:24:22;3.13;;;2.40;;
61635;SDS011;59438;45.014;39.006;2022-08-04T02:26:52;2.38;;;2.17;;
61635;SDS011;59438;45.014;39.006;2022-08-04T02:29:33;2.45;;;2.20;;
61635;SDS011;59438;45.014;39.006;2022-08-04T02:32:06;2.70;;;2.35;;
61635;SDS011;59438;45.014;39.006;2022-08-04T02:34:40;3.28;;;2.70;;
61635;SDS011;59438;45.014;39.006;2022-08-04T02:37:13;3.63;;;2.63;;
61635;SDS011;59438;45.014;39.006;2022-08-04T02:39:42;2.40;;;2.20;;
61635;SDS011;59438;45.014;39.006;2022-08-04T02:42:10;2.90;;;2.50;;
61635;SDS011;59438;45.014;39.006;2022-08-04T02:44:38;3.15;;;2.67;;
61635;SDS011;59438;45.014;39.006;2022-08-04T02:47:06;3.20;;;2.90;;
61635;SDS011;59438;45.014;39.006;2022-08-04T02:49:34;3.05;;;2.42;;
61635;SDS011;59438;45.014;39.006;2022-08-04T02:52:02;3.65;;;2.63;;
61635;SDS011;59438;45.014;39.006;2022-08-04T02:54:31;3.13;;;2.80;;
61635;SDS011;59438;45.014;39.006;2022-08-04T02:57:03;2.80;;;2.55;;
61635;SDS011;59438;45.014;39.006;2022-08-04T03:02:08;2.47;;;2.28;;
61635;SDS011;59438;45.014;39.006;2022-08-04T03:04:40;3.05;;;2.63;;
61635;SDS011;59438;45.014;39.006;2022-08-04T03:13:37;2.60;;;2.33;;
61635;SDS011;59438;45.014;39.006;2022-08-04T03:16:34;3.85;;;2.80;;
61635;SDS011;59438;45.014;39.006;2022-08-04T03:25:48;3.72;;;3.38;;
61635;SDS011;59438;45.014;39.006;2022-08-04T03:31:45;2.55;;;2.33;;
61635;SDS011;59438;45.014;39.006;2022-08-04T03:34:27;5.88;;;4.47;;
61635;SDS011;59438;45.014;39.006;2022-08-04T03:40:24;3.97;;;3.53;;
61635;SDS011;59438;45.014;39.006;2022-08-04T03:43:22;3.33;;;3.03;;
61635;SDS011;59438;45.014;39.006;2022-08-04T03:49:09;3.55;;;3.15;;
61635;SDS011;59438;45.014;39.006;2022-08-04T03:52:03;5.68;;;3.78;;
61635;SDS011;59438;45.014;39.006;2022-08-04T04:00:57;5.13;;;3.45;;
61635;SDS011;59438;45.014;39.006;2022-08-04T04:03:40;4.25;;;3.22;;
61635;SDS011;59438;45.014;39.006;2022-08-04T04:09:27;4.53;;;4.13;;
61635;SDS011;59438;45.014;39.006;2022-08-04T04:12:29;4.55;;;3.70;;
61635;SDS011;59438;45.014;39.006;2022-08-04T04:15:25;3.85;;;3.17;;
61635;SDS011;59438;45.014;39.006;2022-08-04T04:18:15;4.18;;;3.67;;
61635;SDS011;59438;45.014;39.006;2022-08-04T04:20:57;5.28;;;4.10;;
61635;SDS011;59438;45.014;39.006;2022-08-04T04:23:52;4.25;;;3.85;;
61635;SDS011;59438;45.014;39.006;2022-08-04T04:26:52;5.78;;;5.18;;
61635;SDS011;59438;45.014;39.006;2022-08-04T04:32:32;4.68;;;4.25;;
61635;SDS011;59438;45.014;39.006;2022-08-04T04:35:14;6.05;;;5.13;;
61635;SDS011;59438;45.014;39.006;2022-08-04T04:40:58;4.95;;;3.97;;
61635;SDS011;59438;45.014;39.006;2022-08-04T04:43:38;5.25;;;4.32;;
61635;SDS011;59438;45.014;39.006;2022-08-04T04:46:40;5.00;;;4.30;;
61635;SDS011;59438;45.014;39.006;2022-08-04T04:49:13;3.50;;;3.20;;
61635;SDS011;59438;45.014;39.006;2022-08-04T04:51:50;4.50;;;3.85;;
61635;SDS011;59438;45.014;39.006;2022-08-04T04:54:25;3.83;;;3.30;;
61635;SDS011;59438;45.014;39.006;2022-08-04T04:57:13;4.45;;;3.78;;
61635;SDS011;59438;45.014;39.006;2022-08-04T04:59:43;4.00;;;3.60;;
61635;SDS011;59438;45.014;39.006;2022-08-04T05:05:20;3.13;;;2.28;;
61635;SDS011;59438;45.014;39.006;2022-08-04T05:13:56;3.35;;;3.00;;
61635;SDS011;59438;45.014;39.006;2022-08-04T05:16:24;4.50;;;3.58;;
61635;SDS011;59438;45.014;39.006;2022-08-04T05:19:03;3.42;;;3.13;;
61635;SDS011;59438;45.014;39.006;2022-08-04T05:21:41;3.65;;;3.35;;
61635;SDS011;59438;45.014;39.006;2022-08-04T05:24:12;3.70;;;3.40;;
61635;SDS011;59438;45.014;39.006;2022-08-04T05:26:43;4.35;;;3.25;;
61635;SDS011;59438;45.014;39.006;2022-08-04T05:29:12;3.67;;;3.35;;
61635;SDS011;59438;45.014;39.006;2022-08-04T05:31:48;2.58;;;2.38;;
61635;SDS011;59438;45.014;39.006;2022-08-04T05:34:19;3.25;;;2.95;;
61635;SDS011;59438;45.014;39.006;2022-08-04T05:36:49;3.65;;;3.33;;
61635;SDS011;59438;45.014;39.006;2022-08-04T05:39:18;3.92;;;3.53;;
61635;SDS011;59438;45.014;39.006;2022-08-04T05:41:47;3.80;;;2.83;;
61635;SDS011;59438;45.014;39.006;2022-08-04T05:44:15;3.97;;;3.00;;
61635;SDS011;59438;45.014;39.006;2022-08-04T05:46:43;3.50;;;3.20;;
61635;SDS011;59438;45.014;39.006;2022-08-04T05:49:12;4.65;;;2.83;;
61635;SDS011;59438;45.014;39.006;2022-08-04T05:51:42;4.90;;;3.80;;
61635;SDS011;59438;45.014;39.006;2022-08-04T05:54:10;4.22;;;3.65;;
61635;SDS011;59438;45.014;39.006;2022-08-04T05:56:38;4.10;;;3.70;;
61635;SDS011;59438;45.014;39.006;2022-08-04T05:59:06;3.95;;;3.55;;
61635;SDS011;59438;45.014;39.006;2022-08-04T06:01:35;4.30;;;3.90;;
61635;SDS011;59438;45.014;39.006;2022-08-04T06:04:03;4.43;;;3.97;;
61635;SDS011;59438;45.014;39.006;2022-08-04T06:06:31;4.20;;;3.80;;
61635;SDS011;59438;45.014;39.006;2022-08-04T06:08:59;3.63;;;3.28;;
61635;SDS011;59438;45.014;39.006;2022-08-04T06:11:27;3.85;;;3.45;;
61635;SDS011;59438;45.014;39.006;2022-08-04T06:13:55;3.42;;;2.85;;
61635;SDS011;59438;45.014;39.006;2022-08-04T06:16:23;3.10;;;2.80;;
61635;SDS011;59438;45.014;39.006;2022-08-04T06:18:53;3.70;;;3.30;;
61635;SDS011;59438;45.014;39.006;2022-08-04T06:21:23;3.72;;;3.33;;
61635;SDS011;59438;45.014;39.006;2022-08-04T06:23:53;5.43;;;3.63;;
61635;SDS011;59438;45.014;39.006;2022-08-04T06:26:21;4.50;;;3.63;;
61635;SDS011;59438;45.014;39.006;2022-08-04T06:28:51;4.28;;;3.42;;
61635;SDS011;59438;45.014;39.006;2022-08-04T06:31:19;4.03;;;3.63;;
61635;SDS011;59438;45.014;39.006;2022-08-04T06:33:47;3.28;;;2.97;;
61635;SDS011;59438;45.014;39.006;2022-08-04T06:36:14;2.92;;;2.65;;
61635;SDS011;59438;45.014;39.006;2022-08-04T06:38:41;3.22;;;2.80;;
61635;SDS011;59438;45.014;39.006;2022-08-04T06:41:09;3.00;;;2.45;;
61635;SDS011;59438;45.014;39.006;2022-08-04T06:43:37;3.00;;;2.70;;
61635;SDS011;59438;45.014;39.006;2022-08-04T06:46:04;3.45;;;2.88;;
61635;SDS011;59438;45.014;39.006;2022-08-04T06:48:33;3.50;;;2.50;;
61635;SDS011;59438;45.014;39.006;2022-08-04T06:51:00;3.05;;;2.42;;
61635;SDS011;59438;45.014;39.006;2022-08-04T06:53:27;2.45;;;2.25;;
61635;SDS011;59438;45.014;39.006;2022-08-04T06:55:55;3.13;;;2.33;;
61635;SDS011;59438;45.014;39.006;2022-08-04T06:58:22;3.40;;;3.10;;
61635;SDS011;59438;45.014;39.006;2022-08-04T07:00:51;3.10;;;2.70;;
61635;SDS011;59438;45.014;39.006;2022-08-04T07:03:19;2.83;;;2.40;;
61635;SDS011;59438;45.014;39.006;2022-08-04T07:05:46;4.28;;;2.70;;
61635;SDS011;59438;45.014;39.006;2022-08-04T07:08:13;2.53;;;2.28;;
61635;SDS011;59438;45.014;39.006;2022-08-04T07:10:40;3.47;;;3.03;;
61635;SDS011;59438;45.014;39.006;2022-08-04T07:13:07;4.20;;;2.50;;
61635;SDS011;59438;45.014;39.006;2022-08-04T07:15:35;3.05;;;2.30;;
61635;SDS011;59438;45.014;39.006;2022-08-04T07:18:05;3.03;;;2.40;;
61635;SDS011;59438;45.014;39.006;2022-08-04T07:20:31;2.00;;;1.80;;
61635;SDS011;59438;45.014;39.006;2022-08-04T07:22:58;1.92;;;1.70;;
61635;SDS011;59438;45.014;39.006;2022-08-04T07:25:25;2.25;;;1.98;;
61635;SDS011;59438;45.014;39.006;2022-08-04T07:27:52;1.83;;;1.73;;
61635;SDS011;59438;45.014;39.006;2022-08-04T07:30:18;2.55;;;1.90;;
61635;SDS011;59438;45.014;39.006;2022-08-04T07:32:44;2.70;;;2.08;;
61635;SDS011;59438;45.014;39.006;2022-08-04T07:35:13;2.13;;;1.83;;
61635;SDS011;59438;45.014;39.006;2022-08-04T07:37:42;2.38;;;1.98;;
61635;SDS011;59438;45.014;39.006;2022-08-04T07:40:08;2.08;;;1.88;;
61635;SDS011;59438;45.014;39.006;2022-08-04T07:42:36;2.50;;;2.20;;
61635;SDS011;59438;45.014;39.006;2022-08-04T07:45:03;2.63;;;2.13;;
61635;SDS011;59438;45.014;39.006;2022-08-04T07:47:30;2.25;;;1.98;;
61635;SDS011;59438;45.014;39.006;2022-08-04T07:49:57;2.30;;;2.00;;
61635;SDS011;59438;45.014;39.006;2022-08-04T07:52:25;2.75;;;2.00;;
61635;SDS011;59438;45.014;39.006;2022-08-04T07:54:53;2.43;;;2.10;;
61635;SDS011;59438;45.014;39.006;2022-08-04T07:57:19;2.08;;;1.88;;
61635;SDS011;59438;45.014;39.006;2022-08-04T07:59:46;4.03;;;2.30;;
61635;SDS011;59438;45.014;39.006;2022-08-04T08:02:13;2.40;;;2.03;;
61635;SDS011;59438;45.014;39.006;2022-08-04T08:04:40;2.10;;;1.90;;
61635;SDS011;59438;45.014;39.006;2022-08-04T08:07:08;2.88;;;1.70;;
61635;SDS011;59438;45.014;39.006;2022-08-04T08:09:36;2.58;;;1.83;;
61635;SDS011;59438;45.014;39.006;2022-08-04T08:12:02;1.65;;;1.55;;
61635;SDS011;59438;45.014;39.006;2022-08-04T08:14:30;3.00;;;2.33;;
61635;SDS011;59438;45.014;39.006;2022-08-04T08:16:57;3.83;;;2.20;;
61635;SDS011;59438;45.014;39.006;2022-08-04T08:19:24;3.15;;;2.33;;
61635;SDS011;59438;45.014;39.006;2022-08-04T08:21:50;5.22;;;2.80;;
61635;SDS011;59438;45.014;39.006;2022-08-04T08:24:17;2.75;;;2.25;;
61635;SDS011;59438;45.014;39.006;2022-08-04T08:26:44;1.83;;;1.73;;
61635;SDS011;59438;45.014;39.006;2022-08-04T08:29:11;3.90;;;1.92;;
61635;SDS011;59438;45.014;39.006;2022-08-04T08:31:38;2.65;;;1.88;;
61635;SDS011;59438;45.014;39.006;2022-08-04T08:34:04;2.95;;;2.20;;
61635;SDS011;59438;45.014;39.006;2022-08-04T08:36:33;2.80;;;2.35;;
61635;SDS011;59438;45.014;39.006;2022-08-04T08:39:04;2.80;;;2.38;;
61635;SDS011;59438;45.014;39.006;2022-08-04T08:41:50;3.10;;;2.25;;
61635;SDS011;59438;45.014;39.006;2022-08-04T08:44:55;2.88;;;1.98;;
61635;SDS011;59438;45.014;39.006;2022-08-04T08:48:03;2.28;;;1.42;;
61635;SDS011;59438;45.014;39.006;2022-08-04T08:53:50;1.65;;;1.55;;
61635;SDS011;59438;45.014;39.006;2022-08-04T08:56:32;2.40;;;2.20;;
61635;SDS011;59438;45.014;39.006;2022-08-04T08:59:14;2.28;;;2.08;;
61635;SDS011;59438;45.014;39.006;2022-08-04T09:01:57;2.60;;;1.90;;
61635;SDS011;59438;45.014;39.006;2022-08-04T09:04:53;2.40;;;2.20;;
61635;SDS011;59438;45.014;39.006;2022-08-04T09:07:53;1.83;;;1.65;;
61635;SDS011;59438;45.014;39.006;2022-08-04T09:10:34;2.33;;;2.03;;
61635;SDS011;59438;45.014;39.006;2022-08-04T09:13:08;2.28;;;2.08;;
61635;SDS011;59438;45.014;39.006;2022-08-04T09:15:43;3.85;;;2.08;;
61635;SDS011;59438;45.014;39.006;2022-08-04T09:18:17;1.80;;;1.70;;
61635;SDS011;59438;45.014;39.006;2022-08-04T09:20:47;2.35;;;2.03;;
61635;SDS011;59438;45.014;39.006;2022-08-04T09:23:20;2.63;;;2.08;;
61635;SDS011;59438;45.014;39.006;2022-08-04T09:25:54;2.08;;;1.88;;
61635;SDS011;59438;45.014;39.006;2022-08-04T09:28:28;3.17;;;2.03;;
61635;SDS011;59438;45.014;39.006;2022-08-04T09:31:04;2.20;;;1.88;;
61635;SDS011;59438;45.014;39.006;2022-08-04T09:33:36;2.00;;;1.80;;
61635;SDS011;59438;45.014;39.006;2022-08-04T09:36:09;2.20;;;1.70;;
61635;SDS011;59438;45.014;39.006;2022-08-04T09:38:48;2.10;;;1.80;;
61635;SDS011;59438;45.014;39.006;2022-08-04T09:41:26;2.10;;;1.90;;
61635;SDS011;59438;45.014;39.006;2022-08-04T09:44:01;2.60;;;1.98;;
61635;SDS011;59438;45.014;39.006;2022-08-04T09:46:45;2.25;;;2.05;;
61635;SDS011;59438;45.014;39.006;2022-08-04T09:49:17;2.95;;;1.88;;
61635;SDS011;59438;45.014;39.006;2022-08-04T09:51:48;1.90;;;1.77;;
61635;SDS011;59438;45.014;39.006;2022-08-04T09:54:24;1.48;;;1.38;;
61635;SDS011;59438;45.014;39.006;2022-08-04T09:56:57;1.70;;;1.60;;
61635;SDS011;59438;45.014;39.006;2022-08-04T09:59:34;1.20;;;1.00;;
61635;SDS011;59438;45.014;39.006;2022-08-04T10:02:10;1.42;;;1.30;;
61635;SDS011;59438;45.014;39.006;2022-08-04T10:04:41;1.52;;;1.42;;
61635;SDS011;59438;45.014;39.006;2022-08-04T10:07:28;2.20;;;1.27;;
61635;SDS011;59438;45.014;39.006;2022-08-04T10:10:11;1.15;;;1.05;;
61635;SDS011;59438;45.014;39.006;2022-08-04T10:13:00;0.98;;;0.93;;
61635;SDS011;59438;45.014;39.006;2022-08-04T10:15:42;2.17;;;1.75;;
61635;SDS011;59438;45.014;39.006;2022-08-04T10:18:21;1.67;;;1.58;;
61635;SDS011;59438;45.014;39.006;2022-08-04T10:21:01;0.98;;;0.95;;
61635;SDS011;59438;45.014;39.006;2022-08-04T10:23:35;1.88;;;1.27;;
61635;SDS011;59438;45.014;39.006;2022-08-04T10:26:15;0.70;;;0.70;;
61635;SDS011;59438;45.014;39.006;2022-08-04T10:28:53;0.90;;;0.88;;
61635;SDS011;59438;45.014;39.006;2022-08-04T10:31:24;1.10;;;1.00;;
61635;SDS011;59438;45.014;39.006;2022-08-04T10:33:56;1.08;;;0.90;;
61635;SDS011;59438;45.014;39.006;2022-08-04T10:36:26;0.68;;;0.68;;
61635;SDS011;59438;45.014;39.006;2022-08-04T10:38:58;1.50;;;1.40;;
61635;SDS011;59438;45.014;39.006;2022-08-04T10:52:32;2.53;;;2.22;;
61635;SDS011;59438;45.014;39.006;2022-08-04T10:55:04;3.00;;;2.28;;
61635;SDS011;59438;45.014;39.006;2022-08-04T10:57:38;2.25;;;2.05;;
61635;SDS011;59438;45.014;39.006;2022-08-04T11:00:07;2.15;;;1.95;;
61635;SDS011;59438;45.014;39.006;2022-08-04T11:02:36;3.22;;;1.92;;
61635;SDS011;59438;45.014;39.006;2022-08-04T11:05:17;2.40;;;1.92;;
61635;SDS011;59438;45.014;39.006;2022-08-04T11:07:52;1.70;;;1.60;;
61635;SDS011;59438;45.014;39.006;2022-08-04T11:10:24;1.88;;;1.77;;
61635;SDS011;59438;45.014;39.006;2022-08-04T11:12:55;2.92;;;1.90;;
61635;SDS011;59438;45.014;39.006;2022-08-04T11:15:28;3.22;;;2.30;;
61635;SDS011;59438;45.014;39.006;2022-08-04T11:17:58;2.20;;;2.00;;
61635;SDS011;59438;45.014;39.006;2022-08-04T11:20:33;1.90;;;1.70;;
61635;SDS011;59438;45.014;39.006;2022-08-04T11:23:07;2.00;;;1.80;;
61635;SDS011;59438;45.014;39.006;2022-08-04T11:25:38;1.58;;;1.48;;
61635;SDS011;59438;45.014;39.006;2022-08-04T11:28:11;3.05;;;1.60;;
61635;SDS011;59438;45.014;39.006;2022-08-04T11:30:46;1.90;;;1.50;;
61635;SDS011;59438;45.014;39.006;2022-08-04T11:33:22;2.03;;;1.52;;
61635;SDS011;59438;45.014;39.006;2022-08-04T11:35:57;1.50;;;1.40;;
61635;SDS011;59438;45.014;39.006;2022-08-04T11:38:32;1.63;;;1.40;;
61635;SDS011;59438;45.014;39.006;2022-08-04T11:41:06;2.78;;;1.42;;
61635;SDS011;59438;45.014;39.006;2022-08-04T11:43:44;1.35;;;1.25;;
61635;SDS011;59438;45.014;39.006;2022-08-04T11:48:51;1.30;;;1.20;;
61635;SDS011;59438;45.014;39.006;2022-08-04T11:51:21;1.15;;;1.10;;
61635;SDS011;59438;45.014;39.006;2022-08-04T11:53:51;1.20;;;1.10;;
61635;SDS011;59438;45.014;39.006;2022-08-04T11:56:18;1.38;;;1.27;;
61635;SDS011;59438;45.014;39.006;2022-08-04T11:58:45;2.08;;;1.17;;
61635;SDS011;59438;45.014;39.006;2022-08-04T12:01:14;1.77;;;1.48;;
61635;SDS011;59438;45.014;39.006;2022-08-04T12:03:54;1.38;;;1.27;;
61635;SDS011;59438;45.014;39.006;2022-08-04T12:06:30;2.55;;;1.30;;
61635;SDS011;59438;45.014;39.006;2022-08-04T12:09:08;1.58;;;1.40;;
61635;SDS011;59438;45.014;39.006;2022-08-04T12:11:47;1.50;;;1.20;;
61635;SDS011;59438;45.014;39.006;2022-08-04T12:14:32;1.52;;;1.40;;
61635;SDS011;59438;45.014;39.006;2022-08-04T12:17:05;1.50;;;1.40;;
61635;SDS011;59438;45.014;39.006;2022-08-04T12:19:34;1.73;;;1.60;;
61635;SDS011;59438;45.014;39.006;2022-08-04T12:22:05;1.50;;;1.40;;
61635;SDS011;59438;45.014;39.006;2022-08-04T12:24:38;2.10;;;1.60;;
61635;SDS011;59438;45.014;39.006;2022-08-04T12:27:10;1.77;;;1.55;;
61635;SDS011;59438;45.014;39.006;2022-08-04T12:29:40;1.52;;;1.42;;
61635;SDS011;59438;45.014;39.006;2022-08-04T12:32:10;1.63;;;1.48;;
61635;SDS011;59438;45.014;39.006;2022-08-04T12:34:46;1.70;;;1.60;;
61635;SDS011;59438;45.014;39.006;2022-08-04T12:37:22;2.00;;;1.50;;
61635;SDS011;59438;45.014;39.006;2022-08-04T12:39:59;2.53;;;1.67;;
61635;SDS011;59438;45.014;39.006;2022-08-04T12:42:28;2.03;;;1.73;;
61635;SDS011;59438;45.014;39.006;2022-08-04T12:45:06;1.77;;;1.50;;
61635;SDS011;59438;45.014;39.006;2022-08-04T12:47:35;2.30;;;2.00;;
61635;SDS011;59438;45.014;39.006;2022-08-04T12:50:03;2.20;;;1.70;;
61635;SDS011;59438;45.014;39.006;2022-08-04T12:52:32;2.42;;;1.80;;
61635;SDS011;59438;45.014;39.006;2022-08-04T12:55:07;2.33;;;2.08;;
61635;SDS011;59438;45.014;39.006;2022-08-04T12:57:35;2.60;;;2.10;;
61635;SDS011;59438;45.014;39.006;2022-08-04T13:00:02;2.40;;;1.95;;
61635;SDS011;59438;45.014;39.006;2022-08-04T13:02:30;1.98;;;1.80;;
61635;SDS011;59438;45.014;39.006;2022-08-04T13:05:03;1.90;;;1.77;;
61635;SDS011;59438;45.014;39.006;2022-08-04T13:07:35;2.17;;;1.98;;
61635;SDS011;59438;45.014;39.006;2022-08-04T13:10:05;2.08;;;1.88;;
61635;SDS011;59438;45.014;39.006;2022-08-04T13:12:39;2.05;;;1.85;;
61635;SDS011;59438;45.014;39.006;2022-08-04T13:15:08;3.67;;;2.15;;
61635;SDS011;59438;45.014;39.006;2022-08-04T13:17:45;3.95;;;2.28;;
61635;SDS011;59438;45.014;39.006;2022-08-04T13:20:19;2.42;;;1.83;;
61635;SDS011;59438;45.014;39.006;2022-08-04T13:22:50;2.30;;;2.10;;
61635;SDS011;59438;45.014;39.006;2022-08-04T13:25:18;2.03;;;1.90;;
61635;SDS011;59438;45.014;39.006;2022-08-04T13:27:44;2.10;;;1.90;;
61635;SDS011;59438;45.014;39.006;2022-08-04T13:30:12;3.00;;;2.03;;
61635;SDS011;59438;45.014;39.006;2022-08-04T13:32:42;2.42;;;2.00;;
61635;SDS011;59438;45.014;39.006;2022-08-04T13:35:09;1.92;;;1.83;;
61635;SDS011;59438;45.014;39.006;2022-08-04T13:37:38;1.92;;;1.70;;
61635;SDS011;59438;45.014;39.006;2022-08-04T13:40:06;2.58;;;2.03;;
61635;SDS011;59438;45.014;39.006;2022-08-04T13:42:37;2.20;;;1.70;;
61635;SDS011;59438;45.014;39.006;2022-08-04T13:45:07;2.17;;;1.90;;
61635;SDS011;59438;45.014;39.006;2022-08-04T13:47:35;2.20;;;1.92;;
61635;SDS011;59438;45.014;39.006;2022-08-04T13:50:07;2.22;;;1.90;;
61635;SDS011;59438;45.014;39.006;2022-08-04T13:52:38;2.05;;;1.92;;
61635;SDS011;59438;45.014;39.006;2022-08-04T13:55:06;2.45;;;2.00;;
61635;SDS011;59438;45.014;39.006;2022-08-04T13:57:35;2.10;;;1.83;;
61635;SDS011;59438;45.014;39.006;2022-08-04T14:00:10;2.03;;;1.83;;
61635;SDS011;59438;45.014;39.006;2022-08-04T14:02:38;2.10;;;1.90;;
61635;SDS011;59438;45.014;39.006;2022-08-04T14:05:09;1.83;;;1.73;;
61635;SDS011;59438;45.014;39.006;2022-08-04T14:07:40;1.92;;;1.67;;
61635;SDS011;59438;45.014;39.006;2022-08-04T14:10:10;1.80;;;1.70;;
61635;SDS011;59438;45.014;39.006;2022-08-04T14:12:42;2.00;;;1.42;;
61635;SDS011;59438;45.014;39.006;2022-08-04T14:18:00;2.10;;;1.90;;
61635;SDS011;59438;45.014;39.006;2022-08-04T14:20:56;2.70;;;1.95;;
61635;SDS011;59438;45.014;39.006;2022-08-04T14:23:24;2.00;;;1.80;;
61635;SDS011;59438;45.014;39.006;2022-08-04T14:25:50;2.45;;;2.25;;
61635;SDS011;59438;45.014;39.006;2022-08-04T14:28:25;3.40;;;2.25;;
61635;SDS011;59438;45.014;39.006;2022-08-04T14:30:54;4.40;;;1.90;;
61635;SDS011;59438;45.014;39.006;2022-08-04T14:33:35;2.33;;;2.03;;
61635;SDS011;59438;45.014;39.006;2022-08-04T14:36:03;2.70;;;1.83;;
61635;SDS011;59438;45.014;39.006;2022-08-04T14:38:40;2.03;;;1.83;;
61635;SDS011;59438;45.014;39.006;2022-08-04T14:41:09;2.15;;;1.95;;
61635;SDS011;59438;45.014;39.006;2022-08-04T14:43:39;2.10;;;1.90;;
61635;SDS011;59438;45.014;39.006;2022-08-04T14:46:09;2.03;;;1.83;;
61635;SDS011;59438;45.014;39.006;2022-08-04T14:48:36;2.20;;;2.00;;
61635;SDS011;59438;45.014;39.006;2022-08-04T14:51:02;2.00;;;1.70;;
61635;SDS011;59438;45.014;39.006;2022-08-04T14:53:28;4.40;;;2.00;;
61635;SDS011;59438;45.014;39.006;2022-08-04T14:55:56;3.25;;;2.13;;
61635;SDS011;59438;45.014;39.006;2022-08-04T14:58:25;1.80;;;1.70;;
61635;SDS011;59438;45.014;39.006;2022-08-04T15:00:52;1.60;;;1.50;;
61635;SDS011;59438;45.014;39.006;2022-08-04T15:03:22;2.00;;;1.73;;
61635;SDS011;59438;45.014;39.006;2022-08-04T15:05:50;2.00;;;1.80;;
61635;SDS011;59438;45.014;39.006;2022-08-04T15:08:17;2.25;;;1.98;;
61635;SDS011;59438;45.014;39.006;2022-08-04T15:10:43;1.70;;;1.60;;
61635;SDS011;59438;45.014;39.006;2022-08-04T15:13:10;2.00;;;1.80;;
61635;SDS011;59438;45.014;39.006;2022-08-04T15:15:37;2.28;;;1.90;;
61635;SDS011;59438;45.014;39.006;2022-08-04T15:18:06;1.80;;;1.70;;
61635;SDS011;59438;45.014;39.006;2022-08-04T15:20:34;1.83;;;1.70;;
61635;SDS011;59438;45.014;39.006;2022-08-04T15:23:03;3.33;;;1.90;;
61635;SDS011;59438;45.014;39.006;2022-08-04T15:25:31;1.50;;;1.40;;
61635;SDS011;59438;45.014;39.006;2022-08-04T15:27:59;2.13;;;1.55;;
61635;SDS011;59438;45.014;39.006;2022-08-04T15:30:26;1.95;;;1.80;;
61635;SDS011;59438;45.014;39.006;2022-08-04T15:32:55;2.00;;;1.70;;
61635;SDS011;59438;45.014;39.006;2022-08-04T15:35:25;2.10;;;1.80;;
61635;SDS011;59438;45.014;39.006;2022-08-04T15:37:57;1.60;;;1.50;;
61635;SDS011;59438;45.014;39.006;2022-08-04T15:40:28;1.52;;;1.42;;
61635;SDS011;59438;45.014;39.006;2022-08-04T15:43:03;1.63;;;1.52;;
61635;SDS011;59438;45.014;39.006;2022-08-04T15:45:46;1.42;;;1.33;;
61635;SDS011;59438;45.014;39.006;2022-08-04T15:50:59;1.70;;;1.58;;
61635;SDS011;59438;45.014;39.006;2022-08-04T15:53:28;1.50;;;1.40;;
61635;SDS011;59438;45.014;39.006;2022-08-04T15:58:23;1.50;;;1.40;;
61635;SDS011;59438;45.014;39.006;2022-08-04T16:03:42;2.65;;;1.65;;
61635;SDS011;59438;45.014;39.006;2022-08-04T16:09:09;3.47;;;1.88;;
61635;SDS011;59438;45.014;39.006;2022-08-04T16:11:46;1.40;;;1.30;;
61635;SDS011;59438;45.014;39.006;2022-08-04T16:14:13;2.53;;;1.40;;
61635;SDS011;59438;45.014;39.006;2022-08-04T16:16:46;2.10;;;1.70;;
61635;SDS011;59438;45.014;39.006;2022-08-04T16:19:24;1.83;;;1.58;;
61635;SDS011;59438;45.014;39.006;2022-08-04T16:22:01;1.95;;;1.70;;
61635;SDS011;59438;45.014;39.006;2022-08-04T16:24:34;1.52;;;1.40;;
61635;SDS011;59438;45.014;39.006;2022-08-04T16:27:02;2.15;;;1.70;;